sensor_id;sensor_type;location;lat;lon;timestamp;P1;durP1;ratioP1;P2;durP2;ratioP2
55346;SDS011;41218;55.700;38.270;2022-12-10T00:00:22;57.50;;;17.30;;
55346;SDS011;41218;55.700;38.270;2022-12-10T00:05:23;68.20;;;20.73;;
55346;SDS011;41218;55.700;38.270;2022-12-10T00:10:23;53.17;;;18.20;;
55346;SDS011;41218;55.700;38.270;2022-12-10T00:15:24;51.07;;;16.17;;
55346;SDS011;41218;55.700;38.270;2022-12-10T00:20:24;56.40;;;19.53;;
55346;SDS011;41218;55.700;38.270;2022-12-10T00:25:25;55.60;;;15.97;;
55346;SDS011;41218;55.700;38.270;2022-12-10T00:30:25;43.43;;;17.13;;
55346;SDS011;41218;55.700;38.270;2022-12-10T00:35:26;49.13;;;17.87;;
55346;SDS011;41218;55.700;38.270;2022-12-10T00:40:26;49.13;;;17.00;;
55346;SDS011;41218;55.700;38.270;2022-12-10T00:45:27;48.90;;;16.53;;
55346;SDS011;41218;55.700;38.270;2022-12-10T00:50:27;50.90;;;16.37;;
55346;SDS011;41218;55.700;38.270;2022-12-10T00:55:28;45.77;;;16.47;;
55346;SDS011;41218;55.700;38.270;2022-12-10T01:00:28;45.70;;;15.03;;
55346;SDS011;41218;55.700;38.270;2022-12-10T01:05:29;51.87;;;15.87;;
55346;SDS011;41218;55.700;38.270;2022-12-10T01:10:29;52.23;;;18.37;;
55346;SDS011;41218;55.700;38.270;2022-12-10T01:15:30;56.73;;;16.60;;
55346;SDS011;41218;55.700;38.270;2022-12-10T01:20:33;56.95;;;15.57;;
55346;SDS011;41218;55.700;38.270;2022-12-10T01:25:36;58.88;;;17.55;;
55346;SDS011;41218;55.700;38.270;2022-12-10T01:30:37;48.33;;;15.20;;
55346;SDS011;41218;55.700;38.270;2022-12-10T01:35:37;47.57;;;15.40;;
55346;SDS011;41218;55.700;38.270;2022-12-10T01:40:38;48.00;;;16.08;;
55346;SDS011;41218;55.700;38.270;2022-12-10T01:45:39;60.17;;;17.42;;
55346;SDS011;41218;55.700;38.270;2022-12-10T01:50:39;46.50;;;16.57;;
55346;SDS011;41218;55.700;38.270;2022-12-10T02:00:43;47.00;;;16.43;;
55346;SDS011;41218;55.700;38.270;2022-12-10T02:05:54;35.42;;;12.48;;
55346;SDS011;41218;55.700;38.270;2022-12-10T02:11:23;37.15;;;12.45;;
55346;SDS011;41218;55.700;38.270;2022-12-10T02:16:33;35.47;;;12.30;;
55346;SDS011;41218;55.700;38.270;2022-12-10T02:21:38;32.22;;;11.20;;
55346;SDS011;41218;55.700;38.270;2022-12-10T02:26:46;38.05;;;10.77;;
55346;SDS011;41218;55.700;38.270;2022-12-10T02:32:13;34.47;;;9.75;;
55346;SDS011;41218;55.700;38.270;2022-12-10T02:37:29;31.17;;;9.63;;
55346;SDS011;41218;55.700;38.270;2022-12-10T02:42:32;31.63;;;11.00;;
55346;SDS011;41218;55.700;38.270;2022-12-10T02:47:37;30.98;;;9.90;;
55346;SDS011;41218;55.700;38.270;2022-12-10T02:52:39;34.05;;;11.48;;
55346;SDS011;41218;55.700;38.270;2022-12-10T03:03:25;31.33;;;10.57;;
55346;SDS011;41218;55.700;38.270;2022-12-10T03:08:40;34.42;;;11.18;;
55346;SDS011;41218;55.700;38.270;2022-12-10T03:18:55;28.85;;;10.40;;
55346;SDS011;41218;55.700;38.270;2022-12-10T03:24:00;35.22;;;11.15;;
55346;SDS011;41218;55.700;38.270;2022-12-10T03:29:03;35.45;;;10.60;;
55346;SDS011;41218;55.700;38.270;2022-12-10T03:34:08;31.88;;;9.45;;
55346;SDS011;41218;55.700;38.270;2022-12-10T03:39:11;32.80;;;10.00;;
55346;SDS011;41218;55.700;38.270;2022-12-10T03:44:12;31.70;;;9.50;;
55346;SDS011;41218;55.700;38.270;2022-12-10T03:49:13;28.33;;;8.70;;
55346;SDS011;41218;55.700;38.270;2022-12-10T03:54:14;31.60;;;9.40;;
55346;SDS011;41218;55.700;38.270;2022-12-10T03:59:14;26.90;;;8.67;;
55346;SDS011;41218;55.700;38.270;2022-12-10T04:04:15;23.25;;;7.55;;
55346;SDS011;41218;55.700;38.270;2022-12-10T04:09:16;28.90;;;8.43;;
55346;SDS011;41218;55.700;38.270;2022-12-10T04:14:16;26.98;;;8.02;;
55346;SDS011;41218;55.700;38.270;2022-12-10T04:19:36;20.33;;;7.68;;
55346;SDS011;41218;55.700;38.270;2022-12-10T04:24:37;18.25;;;7.90;;
55346;SDS011;41218;55.700;38.270;2022-12-10T04:29:56;25.05;;;7.22;;
55346;SDS011;41218;55.700;38.270;2022-12-10T04:34:57;19.30;;;5.80;;
55346;SDS011;41218;55.700;38.270;2022-12-10T04:39:58;20.65;;;6.57;;
55346;SDS011;41218;55.700;38.270;2022-12-10T04:44:59;20.20;;;7.10;;
55346;SDS011;41218;55.700;38.270;2022-12-10T04:49:59;20.87;;;6.73;;
55346;SDS011;41218;55.700;38.270;2022-12-10T04:55:00;23.47;;;8.07;;
55346;SDS011;41218;55.700;38.270;2022-12-10T05:00:00;21.43;;;6.37;;
55346;SDS011;41218;55.700;38.270;2022-12-10T05:05:01;22.53;;;6.97;;
55346;SDS011;41218;55.700;38.270;2022-12-10T05:10:01;23.70;;;6.93;;
55346;SDS011;41218;55.700;38.270;2022-12-10T05:15:02;20.55;;;7.22;;
55346;SDS011;41218;55.700;38.270;2022-12-10T05:20:03;21.00;;;6.40;;
55346;SDS011;41218;55.700;38.270;2022-12-10T05:25:04;25.83;;;6.72;;
55346;SDS011;41218;55.700;38.270;2022-12-10T05:30:05;20.65;;;7.20;;
55346;SDS011;41218;55.700;38.270;2022-12-10T05:40:07;22.83;;;6.63;;
55346;SDS011;41218;55.700;38.270;2022-12-10T05:45:08;19.85;;;6.30;;
55346;SDS011;41218;55.700;38.270;2022-12-10T05:50:09;22.13;;;6.50;;
55346;SDS011;41218;55.700;38.270;2022-12-10T05:55:09;18.30;;;6.07;;
55346;SDS011;41218;55.700;38.270;2022-12-10T06:00:10;21.47;;;7.07;;
55346;SDS011;41218;55.700;38.270;2022-12-10T06:05:11;28.40;;;7.15;;
55346;SDS011;41218;55.700;38.270;2022-12-10T06:10:11;17.47;;;6.30;;
55346;SDS011;41218;55.700;38.270;2022-12-10T06:15:12;21.40;;;7.22;;
55346;SDS011;41218;55.700;38.270;2022-12-10T06:20:13;22.80;;;7.63;;
55346;SDS011;41218;55.700;38.270;2022-12-10T06:25:13;23.63;;;7.57;;
55346;SDS011;41218;55.700;38.270;2022-12-10T06:56:05;34.38;;;9.35;;
55346;SDS011;41218;55.700;38.270;2022-12-10T07:01:08;27.85;;;8.15;;
55346;SDS011;41218;55.700;38.270;2022-12-10T07:06:19;32.97;;;8.30;;
55346;SDS011;41218;55.700;38.270;2022-12-10T07:11:21;33.73;;;9.07;;
55346;SDS011;41218;55.700;38.270;2022-12-10T07:16:24;34.20;;;9.48;;
55346;SDS011;41218;55.700;38.270;2022-12-10T07:21:27;28.23;;;8.07;;
55346;SDS011;41218;55.700;38.270;2022-12-10T07:26:30;30.23;;;8.52;;
55346;SDS011;41218;55.700;38.270;2022-12-10T07:31:33;33.90;;;8.30;;
55346;SDS011;41218;55.700;38.270;2022-12-10T07:36:34;24.85;;;7.32;;
55346;SDS011;41218;55.700;38.270;2022-12-10T07:41:35;29.33;;;7.70;;
55346;SDS011;41218;55.700;38.270;2022-12-10T07:46:36;36.40;;;8.18;;
55346;SDS011;41218;55.700;38.270;2022-12-10T07:51:38;34.88;;;8.45;;
55346;SDS011;41218;55.700;38.270;2022-12-10T07:56:38;33.60;;;8.97;;
55346;SDS011;41218;55.700;38.270;2022-12-10T08:01:39;35.77;;;8.03;;
55346;SDS011;41218;55.700;38.270;2022-12-10T08:06:40;28.75;;;7.38;;
55346;SDS011;41218;55.700;38.270;2022-12-10T08:11:41;28.13;;;7.80;;
55346;SDS011;41218;55.700;38.270;2022-12-10T08:16:41;32.23;;;8.23;;
55346;SDS011;41218;55.700;38.270;2022-12-10T08:21:42;45.57;;;9.33;;
55346;SDS011;41218;55.700;38.270;2022-12-10T08:26:42;36.10;;;8.40;;
55346;SDS011;41218;55.700;38.270;2022-12-10T08:31:43;44.40;;;10.03;;
55346;SDS011;41218;55.700;38.270;2022-12-10T08:36:43;35.73;;;8.97;;
55346;SDS011;41218;55.700;38.270;2022-12-10T08:41:45;29.23;;;8.80;;
55346;SDS011;41218;55.700;38.270;2022-12-10T08:51:46;33.83;;;7.87;;
55346;SDS011;41218;55.700;38.270;2022-12-10T08:56:47;40.57;;;8.83;;
55346;SDS011;41218;55.700;38.270;2022-12-10T09:01:47;32.47;;;8.47;;
55346;SDS011;41218;55.700;38.270;2022-12-10T09:06:48;36.30;;;9.37;;
55346;SDS011;41218;55.700;38.270;2022-12-10T09:11:48;38.07;;;10.13;;
55346;SDS011;41218;55.700;38.270;2022-12-10T09:16:49;39.60;;;8.60;;
55346;SDS011;41218;55.700;38.270;2022-12-10T09:21:49;38.80;;;9.77;;
55346;SDS011;41218;55.700;38.270;2022-12-10T09:26:50;41.27;;;10.50;;
55346;SDS011;41218;55.700;38.270;2022-12-10T09:31:51;41.20;;;10.33;;
55346;SDS011;41218;55.700;38.270;2022-12-10T09:36:52;51.30;;;11.40;;
55346;SDS011;41218;55.700;38.270;2022-12-10T09:47:04;44.23;;;11.17;;
55346;SDS011;41218;55.700;38.270;2022-12-10T09:52:11;47.80;;;11.77;;
55346;SDS011;41218;55.700;38.270;2022-12-10T09:57:18;39.65;;;9.85;;
55346;SDS011;41218;55.700;38.270;2022-12-10T10:02:31;42.05;;;10.68;;
55346;SDS011;41218;55.700;38.270;2022-12-10T10:07:33;42.63;;;11.05;;
55346;SDS011;41218;55.700;38.270;2022-12-10T10:12:38;42.03;;;11.32;;
55346;SDS011;41218;55.700;38.270;2022-12-10T10:17:39;39.88;;;10.02;;
55346;SDS011;41218;55.700;38.270;2022-12-10T10:22:45;34.38;;;9.63;;
55346;SDS011;41218;55.700;38.270;2022-12-10T10:27:46;50.67;;;10.83;;
55346;SDS011;41218;55.700;38.270;2022-12-10T10:32:48;42.30;;;10.63;;
55346;SDS011;41218;55.700;38.270;2022-12-10T10:37:52;44.75;;;10.63;;
55346;SDS011;41218;55.700;38.270;2022-12-10T10:43:00;43.53;;;10.95;;
55346;SDS011;41218;55.700;38.270;2022-12-10T10:58:23;39.67;;;11.93;;
55346;SDS011;41218;55.700;38.270;2022-12-10T11:03:26;40.67;;;11.20;;
55346;SDS011;41218;55.700;38.270;2022-12-10T11:08:29;37.75;;;11.50;;
55346;SDS011;41218;55.700;38.270;2022-12-10T11:13:32;39.55;;;10.75;;
55346;SDS011;41218;55.700;38.270;2022-12-10T11:18:36;42.78;;;11.95;;
55346;SDS011;41218;55.700;38.270;2022-12-10T11:23:40;39.30;;;10.73;;
55346;SDS011;41218;55.700;38.270;2022-12-10T11:34:13;37.55;;;9.98;;
55346;SDS011;41218;55.700;38.270;2022-12-10T11:55:53;30.65;;;8.32;;
55346;SDS011;41218;55.700;38.270;2022-12-10T12:01:12;27.77;;;8.85;;
55346;SDS011;41218;55.700;38.270;2022-12-10T12:06:38;28.70;;;8.48;;
55346;SDS011;41218;55.700;38.270;2022-12-10T12:11:50;30.42;;;8.15;;
55346;SDS011;41218;55.700;38.270;2022-12-10T12:17:19;26.75;;;8.25;;
55346;SDS011;41218;55.700;38.270;2022-12-10T12:22:28;22.08;;;7.10;;
55346;SDS011;41218;55.700;38.270;2022-12-10T12:27:40;28.50;;;7.85;;
55346;SDS011;41218;55.700;38.270;2022-12-10T12:33:04;26.17;;;7.85;;
55346;SDS011;41218;55.700;38.270;2022-12-10T12:53:55;24.33;;;7.55;;
55346;SDS011;41218;55.700;38.270;2022-12-10T13:04:02;21.20;;;7.65;;
55346;SDS011;41218;55.700;38.270;2022-12-10T13:14:28;24.95;;;8.43;;
55346;SDS011;41218;55.700;38.270;2022-12-10T13:19:30;18.10;;;6.95;;
55346;SDS011;41218;55.700;38.270;2022-12-10T13:34:41;21.05;;;8.02;;
55346;SDS011;41218;55.700;38.270;2022-12-10T13:39:53;16.07;;;6.87;;
55346;SDS011;41218;55.700;38.270;2022-12-10T13:45:01;20.65;;;7.50;;
55346;SDS011;41218;55.700;38.270;2022-12-10T14:00:47;17.83;;;6.38;;
55346;SDS011;41218;55.700;38.270;2022-12-10T14:11:10;18.17;;;6.70;;
55346;SDS011;41218;55.700;38.270;2022-12-10T14:16:29;20.27;;;6.50;;
55346;SDS011;41218;55.700;38.270;2022-12-10T14:21:33;20.40;;;7.00;;
55346;SDS011;41218;55.700;38.270;2022-12-10T14:26:36;16.08;;;6.90;;
55346;SDS011;41218;55.700;38.270;2022-12-10T14:31:38;16.08;;;6.47;;
55346;SDS011;41218;55.700;38.270;2022-12-10T14:36:45;15.93;;;6.60;;
55346;SDS011;41218;55.700;38.270;2022-12-10T14:41:48;18.58;;;6.40;;
55346;SDS011;41218;55.700;38.270;2022-12-10T14:46:52;19.55;;;7.50;;
55346;SDS011;41218;55.700;38.270;2022-12-10T14:52:11;17.33;;;7.07;;
55346;SDS011;41218;55.700;38.270;2022-12-10T14:57:17;15.48;;;6.25;;
55346;SDS011;41218;55.700;38.270;2022-12-10T15:02:24;16.83;;;6.70;;
55346;SDS011;41218;55.700;38.270;2022-12-10T15:07:32;17.73;;;6.78;;
55346;SDS011;41218;55.700;38.270;2022-12-10T15:12:46;15.10;;;6.88;;
55346;SDS011;41218;55.700;38.270;2022-12-10T15:18:01;16.88;;;6.50;;
55346;SDS011;41218;55.700;38.270;2022-12-10T15:28:29;17.85;;;5.93;;
55346;SDS011;41218;55.700;38.270;2022-12-10T15:33:42;16.35;;;6.38;;
55346;SDS011;41218;55.700;38.270;2022-12-10T15:44:06;12.40;;;5.05;;
55346;SDS011;41218;55.700;38.270;2022-12-10T15:49:34;14.63;;;5.40;;
55346;SDS011;41218;55.700;38.270;2022-12-10T15:54:36;11.87;;;5.27;;
55346;SDS011;41218;55.700;38.270;2022-12-10T15:59:38;10.65;;;5.25;;
55346;SDS011;41218;55.700;38.270;2022-12-10T16:04:38;10.73;;;5.33;;
55346;SDS011;41218;55.700;38.270;2022-12-10T16:09:39;13.67;;;4.93;;
55346;SDS011;41218;55.700;38.270;2022-12-10T16:14:40;9.37;;;4.00;;
55346;SDS011;41218;55.700;38.270;2022-12-10T16:19:48;14.48;;;6.80;;
55346;SDS011;41218;55.700;38.270;2022-12-10T16:24:49;12.47;;;4.77;;
55346;SDS011;41218;55.700;38.270;2022-12-10T16:34:51;9.67;;;4.47;;
55346;SDS011;41218;55.700;38.270;2022-12-10T16:39:52;9.68;;;4.38;;
55346;SDS011;41218;55.700;38.270;2022-12-10T16:44:52;11.57;;;4.87;;
55346;SDS011;41218;55.700;38.270;2022-12-10T16:54:54;13.13;;;5.50;;
55346;SDS011;41218;55.700;38.270;2022-12-10T16:59:55;11.57;;;4.77;;
55346;SDS011;41218;55.700;38.270;2022-12-10T17:04:55;8.27;;;3.93;;
55346;SDS011;41218;55.700;38.270;2022-12-10T17:09:56;9.87;;;4.37;;
55346;SDS011;41218;55.700;38.270;2022-12-10T17:14:56;8.33;;;4.30;;
55346;SDS011;41218;55.700;38.270;2022-12-10T17:19:58;18.45;;;7.35;;
55346;SDS011;41218;55.700;38.270;2022-12-10T17:24:58;12.10;;;4.70;;
55346;SDS011;41218;55.700;38.270;2022-12-10T17:29:59;9.97;;;4.37;;
55346;SDS011;41218;55.700;38.270;2022-12-10T17:34:59;9.07;;;3.73;;
55346;SDS011;41218;55.700;38.270;2022-12-10T17:40:00;7.23;;;3.90;;
55346;SDS011;41218;55.700;38.270;2022-12-10T17:45:00;14.80;;;6.30;;
55346;SDS011;41218;55.700;38.270;2022-12-10T17:50:02;10.43;;;4.40;;
55346;SDS011;41218;55.700;38.270;2022-12-10T17:55:05;8.40;;;3.80;;
55346;SDS011;41218;55.700;38.270;2022-12-10T18:00:10;10.73;;;3.93;;
55346;SDS011;41218;55.700;38.270;2022-12-10T18:05:13;7.75;;;3.80;;
55346;SDS011;41218;55.700;38.270;2022-12-10T18:10:18;10.97;;;4.80;;
55346;SDS011;41218;55.700;38.270;2022-12-10T18:15:24;12.10;;;5.43;;
55346;SDS011;41218;55.700;38.270;2022-12-10T18:20:30;19.25;;;8.65;;
55346;SDS011;41218;55.700;38.270;2022-12-10T18:25:33;19.02;;;8.00;;
55346;SDS011;41218;55.700;38.270;2022-12-10T18:30:33;17.10;;;7.45;;
55346;SDS011;41218;55.700;38.270;2022-12-10T18:35:34;21.40;;;7.67;;
55346;SDS011;41218;55.700;38.270;2022-12-10T18:40:35;17.93;;;6.87;;
55346;SDS011;41218;55.700;38.270;2022-12-10T18:45:35;24.37;;;11.27;;
55346;SDS011;41218;55.700;38.270;2022-12-10T18:50:36;14.18;;;6.95;;
55346;SDS011;41218;55.700;38.270;2022-12-10T18:55:37;17.00;;;5.75;;
55346;SDS011;41218;55.700;38.270;2022-12-10T19:00:38;11.60;;;5.10;;
55346;SDS011;41218;55.700;38.270;2022-12-10T19:10:40;7.57;;;3.73;;
55346;SDS011;41218;55.700;38.270;2022-12-10T19:15:40;7.50;;;3.80;;
55346;SDS011;41218;55.700;38.270;2022-12-10T19:20:41;7.03;;;2.63;;
55346;SDS011;41218;55.700;38.270;2022-12-10T19:25:44;5.85;;;2.35;;
55346;SDS011;41218;55.700;38.270;2022-12-10T19:30:45;3.83;;;2.40;;
55346;SDS011;41218;55.700;38.270;2022-12-10T19:35:45;5.32;;;2.63;;
55346;SDS011;41218;55.700;38.270;2022-12-10T19:40:46;7.20;;;2.70;;
55346;SDS011;41218;55.700;38.270;2022-12-10T19:45:47;7.67;;;3.90;;
55346;SDS011;41218;55.700;38.270;2022-12-10T19:50:47;11.77;;;5.57;;
55346;SDS011;41218;55.700;38.270;2022-12-10T19:55:48;13.77;;;6.03;;
55346;SDS011;41218;55.700;38.270;2022-12-10T20:00:48;10.60;;;5.50;;
55346;SDS011;41218;55.700;38.270;2022-12-10T20:05:49;12.07;;;4.50;;
55346;SDS011;41218;55.700;38.270;2022-12-10T20:10:49;11.03;;;5.07;;
55346;SDS011;41218;55.700;38.270;2022-12-10T20:15:49;8.57;;;3.40;;
55346;SDS011;41218;55.700;38.270;2022-12-10T20:20:53;6.95;;;3.40;;
55346;SDS011;41218;55.700;38.270;2022-12-10T20:25:53;4.00;;;2.03;;
55346;SDS011;41218;55.700;38.270;2022-12-10T20:30:54;6.67;;;2.00;;
55346;SDS011;41218;55.700;38.270;2022-12-10T20:35:55;2.47;;;1.50;;
55346;SDS011;41218;55.700;38.270;2022-12-10T20:40:56;1.50;;;1.20;;
55346;SDS011;41218;55.700;38.270;2022-12-10T20:45:57;2.50;;;1.50;;
55346;SDS011;41218;55.700;38.270;2022-12-10T20:50:58;1.83;;;1.27;;
55346;SDS011;41218;55.700;38.270;2022-12-10T20:55:58;1.57;;;0.97;;
55346;SDS011;41218;55.700;38.270;2022-12-10T21:00:59;2.20;;;1.10;;
55346;SDS011;41218;55.700;38.270;2022-12-10T21:05:59;2.13;;;1.20;;
55346;SDS011;41218;55.700;38.270;2022-12-10T21:11:00;2.58;;;1.35;;
55346;SDS011;41218;55.700;38.270;2022-12-10T21:21:03;1.50;;;1.27;;
55346;SDS011;41218;55.700;38.270;2022-12-10T21:26:04;3.30;;;1.00;;
55346;SDS011;41218;55.700;38.270;2022-12-10T21:31:05;1.75;;;1.17;;
55346;SDS011;41218;55.700;38.270;2022-12-10T21:36:07;1.90;;;1.13;;
55346;SDS011;41218;55.700;38.270;2022-12-10T21:41:11;3.42;;;1.48;;
55346;SDS011;41218;55.700;38.270;2022-12-10T21:46:37;1.95;;;1.08;;
55346;SDS011;41218;55.700;38.270;2022-12-10T21:51:38;2.67;;;1.55;;
55346;SDS011;41218;55.700;38.270;2022-12-10T21:56:39;2.40;;;1.03;;
55346;SDS011;41218;55.700;38.270;2022-12-10T22:01:39;11.33;;;3.70;;
55346;SDS011;41218;55.700;38.270;2022-12-10T22:06:39;7.83;;;2.53;;
55346;SDS011;41218;55.700;38.270;2022-12-10T22:11:40;7.43;;;2.70;;
55346;SDS011;41218;55.700;38.270;2022-12-10T22:16:41;7.18;;;3.22;;
55346;SDS011;41218;55.700;38.270;2022-12-10T22:21:41;8.33;;;3.50;;
55346;SDS011;41218;55.700;38.270;2022-12-10T22:26:42;8.30;;;3.20;;
55346;SDS011;41218;55.700;38.270;2022-12-10T22:31:42;5.57;;;2.03;;
55346;SDS011;41218;55.700;38.270;2022-12-10T22:36:43;3.73;;;1.57;;
55346;SDS011;41218;55.700;38.270;2022-12-10T22:41:43;2.30;;;1.50;;
55346;SDS011;41218;55.700;38.270;2022-12-10T22:46:44;2.13;;;1.43;;
55346;SDS011;41218;55.700;38.270;2022-12-10T22:56:46;2.57;;;1.33;;
55346;SDS011;41218;55.700;38.270;2022-12-10T23:01:46;2.00;;;1.13;;
55346;SDS011;41218;55.700;38.270;2022-12-10T23:06:47;2.53;;;1.57;;
55346;SDS011;41218;55.700;38.270;2022-12-10T23:11:47;2.00;;;1.27;;
55346;SDS011;41218;55.700;38.270;2022-12-10T23:17:06;2.72;;;1.60;;
55346;SDS011;41218;55.700;38.270;2022-12-10T23:22:07;2.60;;;1.40;;
55346;SDS011;41218;55.700;38.270;2022-12-10T23:27:07;2.20;;;1.50;;
55346;SDS011;41218;55.700;38.270;2022-12-10T23:32:08;2.90;;;1.63;;
55346;SDS011;41218;55.700;38.270;2022-12-10T23:37:08;3.50;;;1.80;;
55346;SDS011;41218;55.700;38.270;2022-12-10T23:42:09;2.00;;;1.17;;
55346;SDS011;41218;55.700;38.270;2022-12-10T23:47:10;2.57;;;1.50;;
55346;SDS011;41218;55.700;38.270;2022-12-10T23:52:10;3.63;;;1.60;;
55346;SDS011;41218;55.700;38.270;2022-12-10T23:57:11;3.13;;;1.60;;
